sensor_id;sensor_type;location;lat;lon;timestamp;temperature;humidity
38568;DHT22;24338;48.280;10.970;2023-03-21T00:01:49;6.30;99.90
38568;DHT22;24338;48.280;10.970;2023-03-21T00:04:17;6.40;99.90
38568;DHT22;24338;48.280;10.970;2023-03-21T00:06:43;6.30;99.90
38568;DHT22;24338;48.280;10.970;2023-03-21T00:09:10;6.30;99.90
38568;DHT22;24338;48.280;10.970;2023-03-21T00:11:37;6.30;99.90
38568;DHT22;24338;48.280;10.970;2023-03-21T00:14:04;6.30;99.90
38568;DHT22;24338;48.280;10.970;2023-03-21T00:16:34;6.30;99.90
38568;DHT22;24338;48.280;10.970;2023-03-21T00:19:06;6.30;99.90
38568;DHT22;24338;48.280;10.970;2023-03-21T00:21:35;6.40;99.90
38568;DHT22;24338;48.280;10.970;2023-03-21T00:24:21;6.30;99.90
38568;DHT22;24338;48.280;10.970;2023-03-21T00:26:49;6.30;99.90
38568;DHT22;24338;48.280;10.970;2023-03-21T00:29:16;6.40;99.90
38568;DHT22;24338;48.280;10.970;2023-03-21T00:31:43;6.40;99.90
38568;DHT22;24338;48.280;10.970;2023-03-21T00:34:10;6.40;99.90
38568;DHT22;24338;48.280;10.970;2023-03-21T00:36:38;6.40;99.90
38568;DHT22;24338;48.280;10.970;2023-03-21T00:39:05;6.40;99.90
38568;DHT22;24338;48.280;10.970;2023-03-21T00:41:32;6.40;99.90
38568;DHT22;24338;48.280;10.970;2023-03-21T00:44:13;6.40;99.90
38568;DHT22;24338;48.280;10.970;2023-03-21T00:46:41;6.40;99.90
38568;DHT22;24338;48.280;10.970;2023-03-21T00:49:22;6.40;99.90
38568;DHT22;24338;48.280;10.970;2023-03-21T00:51:49;6.40;99.90
38568;DHT22;24338;48.280;10.970;2023-03-21T00:54:17;6.40;99.90
38568;DHT22;24338;48.280;10.970;2023-03-21T00:56:45;6.40;99.90
38568;DHT22;24338;48.280;10.970;2023-03-21T00:59:11;6.30;99.90
38568;DHT22;24338;48.280;10.970;2023-03-21T01:01:38;6.30;99.90
38568;DHT22;24338;48.280;10.970;2023-03-21T01:04:05;6.40;99.90
38568;DHT22;24338;48.280;10.970;2023-03-21T01:06:40;6.30;99.90
38568;DHT22;24338;48.280;10.970;2023-03-21T01:09:14;6.30;99.90
38568;DHT22;24338;48.280;10.970;2023-03-21T01:11:42;6.30;99.90
38568;DHT22;24338;48.280;10.970;2023-03-21T01:14:10;6.30;99.90
38568;DHT22;24338;48.280;10.970;2023-03-21T01:16:52;6.40;99.90
38568;DHT22;24338;48.280;10.970;2023-03-21T01:19:21;6.40;99.90
38568;DHT22;24338;48.280;10.970;2023-03-21T01:21:58;6.30;99.90
38568;DHT22;24338;48.280;10.970;2023-03-21T01:24:25;6.30;99.90
38568;DHT22;24338;48.280;10.970;2023-03-21T01:26:52;6.30;99.90
38568;DHT22;24338;48.280;10.970;2023-03-21T01:29:19;6.40;99.90
38568;DHT22;24338;48.280;10.970;2023-03-21T01:31:45;6.30;99.90
38568;DHT22;24338;48.280;10.970;2023-03-21T01:34:12;6.30;99.90
38568;DHT22;24338;48.280;10.970;2023-03-21T01:36:39;6.30;99.90
38568;DHT22;24338;48.280;10.970;2023-03-21T01:39:06;6.40;99.90
38568;DHT22;24338;48.280;10.970;2023-03-21T01:41:36;6.30;99.90
38568;DHT22;24338;48.280;10.970;2023-03-21T01:44:16;6.30;99.90
38568;DHT22;24338;48.280;10.970;2023-03-21T01:46:45;6.30;99.90
38568;DHT22;24338;48.280;10.970;2023-03-21T01:49:38;6.30;99.90
38568;DHT22;24338;48.280;10.970;2023-03-21T01:52:08;6.30;99.90
38568;DHT22;24338;48.280;10.970;2023-03-21T01:54:43;6.30;99.90
38568;DHT22;24338;48.280;10.970;2023-03-21T01:57:17;6.30;99.90
38568;DHT22;24338;48.280;10.970;2023-03-21T01:59:49;6.30;99.90
38568;DHT22;24338;48.280;10.970;2023-03-21T02:02:21;6.30;99.90
38568;DHT22;24338;48.280;10.970;2023-03-21T02:04:49;6.30;99.90
38568;DHT22;24338;48.280;10.970;2023-03-21T02:07:28;6.30;99.90
38568;DHT22;24338;48.280;10.970;2023-03-21T02:09:55;6.30;99.90
38568;DHT22;24338;48.280;10.970;2023-03-21T02:12:25;6.30;99.90
38568;DHT22;24338;48.280;10.970;2023-03-21T02:14:52;6.30;99.90
38568;DHT22;24338;48.280;10.970;2023-03-21T02:17:38;6.30;99.90
38568;DHT22;24338;48.280;10.970;2023-03-21T02:26:10;6.30;99.90
38568;DHT22;24338;48.280;10.970;2023-03-21T02:28:44;6.30;99.90
38568;DHT22;24338;48.280;10.970;2023-03-21T02:45:20;6.40;99.90
38568;DHT22;24338;48.280;10.970;2023-03-21T02:47:52;6.40;99.90
38568;DHT22;24338;48.280;10.970;2023-03-21T02:52:56;6.40;99.90
38568;DHT22;24338;48.280;10.970;2023-03-21T02:55:29;6.40;99.90
38568;DHT22;24338;48.280;10.970;2023-03-21T02:57:58;6.40;99.90
38568;DHT22;24338;48.280;10.970;2023-03-21T03:00:38;6.40;99.90
38568;DHT22;24338;48.280;10.970;2023-03-21T03:03:05;6.40;99.90
38568;DHT22;24338;48.280;10.970;2023-03-21T03:05:43;6.40;99.90
38568;DHT22;24338;48.280;10.970;2023-03-21T03:10:56;6.40;99.90
38568;DHT22;24338;48.280;10.970;2023-03-21T03:13:53;6.50;99.90
38568;DHT22;24338;48.280;10.970;2023-03-21T03:17:09;6.40;99.90
38568;DHT22;24338;48.280;10.970;2023-03-21T03:19:26;6.40;99.90
38568;DHT22;24338;48.280;10.970;2023-03-21T03:22:08;6.40;99.90
38568;DHT22;24338;48.280;10.970;2023-03-21T03:24:45;6.50;99.90
38568;DHT22;24338;48.280;10.970;2023-03-21T03:27:28;6.40;99.90
38568;DHT22;24338;48.280;10.970;2023-03-21T03:29:58;6.40;99.90
38568;DHT22;24338;48.280;10.970;2023-03-21T03:32:53;6.40;99.90
38568;DHT22;24338;48.280;10.970;2023-03-21T03:35:22;6.40;99.90
38568;DHT22;24338;48.280;10.970;2023-03-21T03:37:54;6.40;99.90
38568;DHT22;24338;48.280;10.970;2023-03-21T03:40:29;6.50;99.90
38568;DHT22;24338;48.280;10.970;2023-03-21T03:43:04;6.50;99.90
38568;DHT22;24338;48.280;10.970;2023-03-21T03:45:35;6.50;99.90
38568;DHT22;24338;48.280;10.970;2023-03-21T03:48:14;6.50;99.90
38568;DHT22;24338;48.280;10.970;2023-03-21T03:55:46;6.40;99.90
38568;DHT22;24338;48.280;10.970;2023-03-21T03:58:19;6.40;99.90
38568;DHT22;24338;48.280;10.970;2023-03-21T04:00:51;6.40;99.90
38568;DHT22;24338;48.280;10.970;2023-03-21T04:03:19;6.40;99.90
38568;DHT22;24338;48.280;10.970;2023-03-21T04:05:46;6.40;99.90
38568;DHT22;24338;48.280;10.970;2023-03-21T04:08:14;6.40;99.90
38568;DHT22;24338;48.280;10.970;2023-03-21T04:10:42;6.40;99.90
38568;DHT22;24338;48.280;10.970;2023-03-21T04:13:09;6.40;99.90
38568;DHT22;24338;48.280;10.970;2023-03-21T04:15:36;6.40;99.90
38568;DHT22;24338;48.280;10.970;2023-03-21T04:18:02;6.30;99.90
38568;DHT22;24338;48.280;10.970;2023-03-21T04:20:29;6.40;99.90
38568;DHT22;24338;48.280;10.970;2023-03-21T04:23:03;6.30;99.90
38568;DHT22;24338;48.280;10.970;2023-03-21T04:25:33;6.30;99.90
38568;DHT22;24338;48.280;10.970;2023-03-21T04:28:04;6.30;99.90
38568;DHT22;24338;48.280;10.970;2023-03-21T04:30:30;6.20;99.90
38568;DHT22;24338;48.280;10.970;2023-03-21T04:32:59;6.20;99.90
38568;DHT22;24338;48.280;10.970;2023-03-21T04:35:27;6.20;99.90
38568;DHT22;24338;48.280;10.970;2023-03-21T04:37:54;6.20;99.90
38568;DHT22;24338;48.280;10.970;2023-03-21T04:40:21;6.20;99.90
38568;DHT22;24338;48.280;10.970;2023-03-21T04:42:48;6.20;99.90
38568;DHT22;24338;48.280;10.970;2023-03-21T04:45:16;6.20;99.90
38568;DHT22;24338;48.280;10.970;2023-03-21T04:47:42;6.20;99.90
38568;DHT22;24338;48.280;10.970;2023-03-21T04:50:10;6.20;99.90
38568;DHT22;24338;48.280;10.970;2023-03-21T04:52:38;6.30;99.90
38568;DHT22;24338;48.280;10.970;2023-03-21T04:55:06;6.30;99.90
38568;DHT22;24338;48.280;10.970;2023-03-21T04:57:38;6.30;99.90
38568;DHT22;24338;48.280;10.970;2023-03-21T05:00:07;6.30;99.90
38568;DHT22;24338;48.280;10.970;2023-03-21T05:02:37;6.30;99.90
38568;DHT22;24338;48.280;10.970;2023-03-21T05:05:07;6.30;99.90
38568;DHT22;24338;48.280;10.970;2023-03-21T05:07:39;6.30;99.90
38568;DHT22;24338;48.280;10.970;2023-03-21T05:10:08;6.30;99.90
38568;DHT22;24338;48.280;10.970;2023-03-21T05:12:36;6.30;99.90
38568;DHT22;24338;48.280;10.970;2023-03-21T05:15:03;6.30;99.90
38568;DHT22;24338;48.280;10.970;2023-03-21T05:17:31;6.30;99.90
38568;DHT22;24338;48.280;10.970;2023-03-21T05:19:57;6.30;99.90
38568;DHT22;24338;48.280;10.970;2023-03-21T05:22:24;6.20;99.90
38568;DHT22;24338;48.280;10.970;2023-03-21T05:24:53;6.30;99.90
38568;DHT22;24338;48.280;10.970;2023-03-21T05:27:22;6.20;99.90
38568;DHT22;24338;48.280;10.970;2023-03-21T05:30:05;6.20;99.90
38568;DHT22;24338;48.280;10.970;2023-03-21T05:32:32;6.20;99.90
38568;DHT22;24338;48.280;10.970;2023-03-21T05:34:59;6.20;99.90
38568;DHT22;24338;48.280;10.970;2023-03-21T05:37:27;6.20;99.90
38568;DHT22;24338;48.280;10.970;2023-03-21T05:39:54;6.20;99.90
38568;DHT22;24338;48.280;10.970;2023-03-21T05:42:21;6.20;99.90
38568;DHT22;24338;48.280;10.970;2023-03-21T05:44:48;6.20;99.90
38568;DHT22;24338;48.280;10.970;2023-03-21T05:47:16;6.30;99.90
38568;DHT22;24338;48.280;10.970;2023-03-21T05:49:43;6.30;99.90
38568;DHT22;24338;48.280;10.970;2023-03-21T05:52:10;6.30;99.90
38568;DHT22;24338;48.280;10.970;2023-03-21T05:54:37;6.30;99.90
38568;DHT22;24338;48.280;10.970;2023-03-21T05:57:04;6.40;99.90
38568;DHT22;24338;48.280;10.970;2023-03-21T05:59:31;6.40;99.90
38568;DHT22;24338;48.280;10.970;2023-03-21T06:01:58;6.40;99.90
38568;DHT22;24338;48.280;10.970;2023-03-21T06:04:25;6.40;99.90
38568;DHT22;24338;48.280;10.970;2023-03-21T06:06:52;6.50;99.90
38568;DHT22;24338;48.280;10.970;2023-03-21T06:09:20;6.50;99.90
38568;DHT22;24338;48.280;10.970;2023-03-21T06:11:50;6.50;99.90
38568;DHT22;24338;48.280;10.970;2023-03-21T06:14:18;6.60;99.90
38568;DHT22;24338;48.280;10.970;2023-03-21T06:16:46;6.60;99.90
38568;DHT22;24338;48.280;10.970;2023-03-21T06:19:12;6.70;99.90
38568;DHT22;24338;48.280;10.970;2023-03-21T06:21:39;6.70;99.90
38568;DHT22;24338;48.280;10.970;2023-03-21T06:24:06;6.70;99.90
38568;DHT22;24338;48.280;10.970;2023-03-21T06:26:33;6.80;99.90
38568;DHT22;24338;48.280;10.970;2023-03-21T06:29:00;6.80;99.90
38568;DHT22;24338;48.280;10.970;2023-03-21T06:31:27;6.80;99.90
38568;DHT22;24338;48.280;10.970;2023-03-21T06:33:54;6.80;99.90
38568;DHT22;24338;48.280;10.970;2023-03-21T06:36:21;6.90;99.90
38568;DHT22;24338;48.280;10.970;2023-03-21T06:38:48;6.90;99.90
38568;DHT22;24338;48.280;10.970;2023-03-21T06:41:14;6.90;99.90
38568;DHT22;24338;48.280;10.970;2023-03-21T06:43:43;7.00;99.90
38568;DHT22;24338;48.280;10.970;2023-03-21T06:46:10;7.00;99.90
38568;DHT22;24338;48.280;10.970;2023-03-21T06:48:37;7.00;99.90
38568;DHT22;24338;48.280;10.970;2023-03-21T06:51:05;7.00;99.90
38568;DHT22;24338;48.280;10.970;2023-03-21T06:53:32;7.10;99.90
38568;DHT22;24338;48.280;10.970;2023-03-21T06:56:01;7.10;99.90
38568;DHT22;24338;48.280;10.970;2023-03-21T06:58:28;7.20;99.90
38568;DHT22;24338;48.280;10.970;2023-03-21T07:00:58;7.20;99.90
38568;DHT22;24338;48.280;10.970;2023-03-21T07:03:25;7.20;99.90
38568;DHT22;24338;48.280;10.970;2023-03-21T07:05:52;7.30;99.90
38568;DHT22;24338;48.280;10.970;2023-03-21T07:08:19;7.30;99.90
38568;DHT22;24338;48.280;10.970;2023-03-21T07:10:46;7.40;99.90
38568;DHT22;24338;48.280;10.970;2023-03-21T07:13:13;7.40;99.90
38568;DHT22;24338;48.280;10.970;2023-03-21T07:15:41;7.50;99.90
38568;DHT22;24338;48.280;10.970;2023-03-21T07:18:08;7.60;99.90
38568;DHT22;24338;48.280;10.970;2023-03-21T07:20:35;7.60;99.90
38568;DHT22;24338;48.280;10.970;2023-03-21T07:23:05;7.70;99.90
38568;DHT22;24338;48.280;10.970;2023-03-21T07:25:32;7.70;99.90
38568;DHT22;24338;48.280;10.970;2023-03-21T07:28:00;7.90;99.90
38568;DHT22;24338;48.280;10.970;2023-03-21T07:30:27;7.90;99.90
38568;DHT22;24338;48.280;10.970;2023-03-21T07:32:54;8.00;99.90
38568;DHT22;24338;48.280;10.970;2023-03-21T07:35:20;8.00;99.90
38568;DHT22;24338;48.280;10.970;2023-03-21T07:37:47;8.10;99.90
38568;DHT22;24338;48.280;10.970;2023-03-21T07:40:15;8.20;99.90
38568;DHT22;24338;48.280;10.970;2023-03-21T07:42:42;8.20;99.90
38568;DHT22;24338;48.280;10.970;2023-03-21T07:45:09;8.30;99.90
38568;DHT22;24338;48.280;10.970;2023-03-21T07:47:36;8.40;99.90
38568;DHT22;24338;48.280;10.970;2023-03-21T07:50:04;8.50;99.90
38568;DHT22;24338;48.280;10.970;2023-03-21T07:52:31;8.50;99.90
38568;DHT22;24338;48.280;10.970;2023-03-21T07:54:58;8.60;99.90
38568;DHT22;24338;48.280;10.970;2023-03-21T07:57:24;8.70;99.90
38568;DHT22;24338;48.280;10.970;2023-03-21T07:59:51;8.80;99.90
38568;DHT22;24338;48.280;10.970;2023-03-21T08:02:18;8.90;99.90
38568;DHT22;24338;48.280;10.970;2023-03-21T08:04:45;9.00;99.90
38568;DHT22;24338;48.280;10.970;2023-03-21T08:07:12;9.10;99.90
38568;DHT22;24338;48.280;10.970;2023-03-21T08:09:39;9.10;99.90
38568;DHT22;24338;48.280;10.970;2023-03-21T08:12:06;9.20;99.90
38568;DHT22;24338;48.280;10.970;2023-03-21T08:14:36;9.30;99.90
38568;DHT22;24338;48.280;10.970;2023-03-21T08:17:03;9.40;99.90
38568;DHT22;24338;48.280;10.970;2023-03-21T08:19:31;9.40;99.90
38568;DHT22;24338;48.280;10.970;2023-03-21T08:21:58;9.50;99.90
38568;DHT22;24338;48.280;10.970;2023-03-21T08:24:27;9.60;99.90
38568;DHT22;24338;48.280;10.970;2023-03-21T08:26:54;9.70;99.90
38568;DHT22;24338;48.280;10.970;2023-03-21T08:29:21;9.70;99.90
38568;DHT22;24338;48.280;10.970;2023-03-21T08:31:48;9.80;99.90
38568;DHT22;24338;48.280;10.970;2023-03-21T08:34:15;9.90;99.90
38568;DHT22;24338;48.280;10.970;2023-03-21T08:36:43;10.00;99.90
38568;DHT22;24338;48.280;10.970;2023-03-21T08:39:10;10.10;99.90
38568;DHT22;24338;48.280;10.970;2023-03-21T08:41:37;10.20;99.90
38568;DHT22;24338;48.280;10.970;2023-03-21T08:44:05;10.30;99.90
38568;DHT22;24338;48.280;10.970;2023-03-21T08:46:35;10.30;99.90
38568;DHT22;24338;48.280;10.970;2023-03-21T08:49:02;10.30;99.90
38568;DHT22;24338;48.280;10.970;2023-03-21T08:51:28;10.40;99.90
38568;DHT22;24338;48.280;10.970;2023-03-21T08:53:57;10.40;99.90
38568;DHT22;24338;48.280;10.970;2023-03-21T08:56:24;10.40;99.90
38568;DHT22;24338;48.280;10.970;2023-03-21T08:58:50;10.60;99.90
38568;DHT22;24338;48.280;10.970;2023-03-21T09:01:17;10.70;99.90
38568;DHT22;24338;48.280;10.970;2023-03-21T09:03:44;10.70;99.90
38568;DHT22;24338;48.280;10.970;2023-03-21T09:06:11;10.80;99.90
38568;DHT22;24338;48.280;10.970;2023-03-21T09:08:40;11.00;99.90
38568;DHT22;24338;48.280;10.970;2023-03-21T09:11:08;11.10;99.90
38568;DHT22;24338;48.280;10.970;2023-03-21T09:13:38;11.20;99.90
38568;DHT22;24338;48.280;10.970;2023-03-21T09:16:05;11.30;99.90
38568;DHT22;24338;48.280;10.970;2023-03-21T09:18:32;11.30;99.90
38568;DHT22;24338;48.280;10.970;2023-03-21T09:21:16;11.50;99.90
38568;DHT22;24338;48.280;10.970;2023-03-21T09:23:43;11.70;99.90
38568;DHT22;24338;48.280;10.970;2023-03-21T09:26:10;11.60;99.90
38568;DHT22;24338;48.280;10.970;2023-03-21T09:28:39;11.90;99.90
38568;DHT22;24338;48.280;10.970;2023-03-21T09:31:06;12.00;99.90
38568;DHT22;24338;48.280;10.970;2023-03-21T09:33:37;12.00;99.90
38568;DHT22;24338;48.280;10.970;2023-03-21T09:36:07;12.10;99.90
38568;DHT22;24338;48.280;10.970;2023-03-21T09:38:40;12.20;99.90
38568;DHT22;24338;48.280;10.970;2023-03-21T09:43:49;12.30;99.90
38568;DHT22;24338;48.280;10.970;2023-03-21T09:48:50;12.60;99.90
38568;DHT22;24338;48.280;10.970;2023-03-21T09:51:26;12.60;99.90
38568;DHT22;24338;48.280;10.970;2023-03-21T09:53:55;12.50;99.90
38568;DHT22;24338;48.280;10.970;2023-03-21T09:56:23;12.60;99.90
38568;DHT22;24338;48.280;10.970;2023-03-21T09:58:55;12.70;99.90
38568;DHT22;24338;48.280;10.970;2023-03-21T10:01:29;13.00;99.90
38568;DHT22;24338;48.280;10.970;2023-03-21T10:04:04;13.10;99.90
38568;DHT22;24338;48.280;10.970;2023-03-21T10:06:35;13.50;99.90
38568;DHT22;24338;48.280;10.970;2023-03-21T10:09:18;13.60;99.90
38568;DHT22;24338;48.280;10.970;2023-03-21T10:11:58;13.60;99.90
38568;DHT22;24338;48.280;10.970;2023-03-21T10:16:57;14.00;99.90
38568;DHT22;24338;48.280;10.970;2023-03-21T10:19:27;14.10;99.90
38568;DHT22;24338;48.280;10.970;2023-03-21T10:21:54;14.40;99.90
38568;DHT22;24338;48.280;10.970;2023-03-21T10:24:28;14.30;99.90
38568;DHT22;24338;48.280;10.970;2023-03-21T10:26:56;14.60;99.90
38568;DHT22;24338;48.280;10.970;2023-03-21T10:29:27;14.70;99.90
38568;DHT22;24338;48.280;10.970;2023-03-21T10:31:56;14.80;99.90
38568;DHT22;24338;48.280;10.970;2023-03-21T10:34:36;14.90;98.50
38568;DHT22;24338;48.280;10.970;2023-03-21T10:37:06;14.90;99.40
38568;DHT22;24338;48.280;10.970;2023-03-21T10:39:38;15.20;99.90
38568;DHT22;24338;48.280;10.970;2023-03-21T10:44:52;14.70;99.00
38568;DHT22;24338;48.280;10.970;2023-03-21T10:47:30;14.60;99.30
38568;DHT22;24338;48.280;10.970;2023-03-21T10:50:07;14.60;97.50
38568;DHT22;24338;48.280;10.970;2023-03-21T10:52:40;14.60;99.90
38568;DHT22;24338;48.280;10.970;2023-03-21T10:55:28;14.60;99.20
38568;DHT22;24338;48.280;10.970;2023-03-21T10:58:03;14.60;99.40
38568;DHT22;24338;48.280;10.970;2023-03-21T11:00:36;14.70;98.60
38568;DHT22;24338;48.280;10.970;2023-03-21T11:03:05;14.90;99.70
38568;DHT22;24338;48.280;10.970;2023-03-21T11:05:36;14.90;99.50
38568;DHT22;24338;48.280;10.970;2023-03-21T11:08:15;15.10;99.00
38568;DHT22;24338;48.280;10.970;2023-03-21T11:11:01;15.00;98.40
38568;DHT22;24338;48.280;10.970;2023-03-21T11:13:43;15.00;98.00
38568;DHT22;24338;48.280;10.970;2023-03-21T11:16:18;15.10;99.30
38568;DHT22;24338;48.280;10.970;2023-03-21T11:18:50;15.40;98.60
38568;DHT22;24338;48.280;10.970;2023-03-21T11:21:18;15.50;96.90
38568;DHT22;24338;48.280;10.970;2023-03-21T11:23:48;15.30;98.10
38568;DHT22;24338;48.280;10.970;2023-03-21T11:26:26;15.30;97.30
38568;DHT22;24338;48.280;10.970;2023-03-21T11:28:54;15.30;98.00
38568;DHT22;24338;48.280;10.970;2023-03-21T11:31:21;15.20;97.40
38568;DHT22;24338;48.280;10.970;2023-03-21T11:33:54;15.30;98.60
38568;DHT22;24338;48.280;10.970;2023-03-21T11:38:56;15.50;97.30
38568;DHT22;24338;48.280;10.970;2023-03-21T11:41:31;15.70;97.70
38568;DHT22;24338;48.280;10.970;2023-03-21T11:44:00;15.50;94.90
38568;DHT22;24338;48.280;10.970;2023-03-21T11:46:31;15.50;95.70
38568;DHT22;24338;48.280;10.970;2023-03-21T11:49:08;15.50;97.30
38568;DHT22;24338;48.280;10.970;2023-03-21T11:57:17;15.70;96.90
38568;DHT22;24338;48.280;10.970;2023-03-21T12:00:06;15.70;95.40
38568;DHT22;24338;48.280;10.970;2023-03-21T12:05:30;16.00;93.80
38568;DHT22;24338;48.280;10.970;2023-03-21T12:08:12;16.20;93.80
38568;DHT22;24338;48.280;10.970;2023-03-21T12:11:02;16.00;91.90
38568;DHT22;24338;48.280;10.970;2023-03-21T12:14:08;15.80;92.40
38568;DHT22;24338;48.280;10.970;2023-03-21T12:22:00;16.00;94.20
38568;DHT22;24338;48.280;10.970;2023-03-21T12:24:46;16.00;94.90
38568;DHT22;24338;48.280;10.970;2023-03-21T12:33:44;16.50;90.30
38568;DHT22;24338;48.280;10.970;2023-03-21T12:38:38;16.20;92.10
38568;DHT22;24338;48.280;10.970;2023-03-21T12:41:14;16.00;91.40
38568;DHT22;24338;48.280;10.970;2023-03-21T12:46:35;16.10;91.10
38568;DHT22;24338;48.280;10.970;2023-03-21T12:49:15;16.30;93.60
38568;DHT22;24338;48.280;10.970;2023-03-21T12:51:46;16.60;92.30
38568;DHT22;24338;48.280;10.970;2023-03-21T12:54:22;16.90;92.50
38568;DHT22;24338;48.280;10.970;2023-03-21T12:56:58;16.80;91.20
38568;DHT22;24338;48.280;10.970;2023-03-21T12:59:37;16.60;91.00
38568;DHT22;24338;48.280;10.970;2023-03-21T13:02:17;16.70;92.40
38568;DHT22;24338;48.280;10.970;2023-03-21T13:04:55;16.70;90.50
38568;DHT22;24338;48.280;10.970;2023-03-21T13:07:28;16.90;92.10
38568;DHT22;24338;48.280;10.970;2023-03-21T13:09:57;16.70;91.10
38568;DHT22;24338;48.280;10.970;2023-03-21T13:12:42;16.60;90.30
38568;DHT22;24338;48.280;10.970;2023-03-21T13:18:30;16.90;91.50
38568;DHT22;24338;48.280;10.970;2023-03-21T13:21:03;17.00;91.50
38568;DHT22;24338;48.280;10.970;2023-03-21T13:23:37;16.90;91.20
38568;DHT22;24338;48.280;10.970;2023-03-21T13:26:08;17.10;91.90
38568;DHT22;24338;48.280;10.970;2023-03-21T13:28:39;17.10;91.50
38568;DHT22;24338;48.280;10.970;2023-03-21T13:31:25;17.30;90.70
38568;DHT22;24338;48.280;10.970;2023-03-21T13:33:58;17.50;90.90
38568;DHT22;24338;48.280;10.970;2023-03-21T13:36:27;17.40;89.50
38568;DHT22;24338;48.280;10.970;2023-03-21T13:38:59;17.30;90.40
38568;DHT22;24338;48.280;10.970;2023-03-21T13:41:35;17.20;90.60
38568;DHT22;24338;48.280;10.970;2023-03-21T13:44:05;17.10;91.40
38568;DHT22;24338;48.280;10.970;2023-03-21T13:46:43;16.70;91.30
38568;DHT22;24338;48.280;10.970;2023-03-21T13:49:33;16.40;90.50
38568;DHT22;24338;48.280;10.970;2023-03-21T13:52:47;16.30;91.30
38568;DHT22;24338;48.280;10.970;2023-03-21T13:54:54;16.20;91.20
38568;DHT22;24338;48.280;10.970;2023-03-21T14:05:24;16.30;91.30
38568;DHT22;24338;48.280;10.970;2023-03-21T14:08:00;16.50;91.30
38568;DHT22;24338;48.280;10.970;2023-03-21T14:10:53;16.50;90.90
38568;DHT22;24338;48.280;10.970;2023-03-21T14:13:24;16.60;87.80
38568;DHT22;24338;48.280;10.970;2023-03-21T14:15:54;16.80;90.50
38568;DHT22;24338;48.280;10.970;2023-03-21T14:18:25;16.70;90.90
38568;DHT22;24338;48.280;10.970;2023-03-21T14:21:22;16.70;89.60
38568;DHT22;24338;48.280;10.970;2023-03-21T14:23:57;16.70;90.30
38568;DHT22;24338;48.280;10.970;2023-03-21T14:26:28;16.40;88.20
38568;DHT22;24338;48.280;10.970;2023-03-21T14:28:55;16.50;90.00
38568;DHT22;24338;48.280;10.970;2023-03-21T14:31:23;16.50;90.10
38568;DHT22;24338;48.280;10.970;2023-03-21T14:33:55;16.50;90.50
38568;DHT22;24338;48.280;10.970;2023-03-21T14:36:30;16.20;89.10
38568;DHT22;24338;48.280;10.970;2023-03-21T14:39:26;16.10;90.50
38568;DHT22;24338;48.280;10.970;2023-03-21T14:42:00;16.30;90.30
38568;DHT22;24338;48.280;10.970;2023-03-21T14:44:37;16.20;88.50
38568;DHT22;24338;48.280;10.970;2023-03-21T14:47:28;16.20;88.30
38568;DHT22;24338;48.280;10.970;2023-03-21T14:49:56;16.10;89.00
38568;DHT22;24338;48.280;10.970;2023-03-21T14:52:31;16.00;89.70
38568;DHT22;24338;48.280;10.970;2023-03-21T14:55:00;15.90;89.90
38568;DHT22;24338;48.280;10.970;2023-03-21T14:57:30;15.90;89.00
38568;DHT22;24338;48.280;10.970;2023-03-21T15:00:00;15.90;90.30
38568;DHT22;24338;48.280;10.970;2023-03-21T15:02:38;15.80;90.30
38568;DHT22;24338;48.280;10.970;2023-03-21T15:05:28;15.70;90.50
38568;DHT22;24338;48.280;10.970;2023-03-21T15:08:02;15.60;90.80
38568;DHT22;24338;48.280;10.970;2023-03-21T15:10:30;15.60;91.30
38568;DHT22;24338;48.280;10.970;2023-03-21T15:13:12;15.40;91.50
38568;DHT22;24338;48.280;10.970;2023-03-21T15:15:39;15.30;92.00
38568;DHT22;24338;48.280;10.970;2023-03-21T15:18:07;15.30;91.50
38568;DHT22;24338;48.280;10.970;2023-03-21T15:20:40;15.20;91.10
38568;DHT22;24338;48.280;10.970;2023-03-21T15:23:12;15.20;91.90
38568;DHT22;24338;48.280;10.970;2023-03-21T15:25:40;15.20;91.80
38568;DHT22;24338;48.280;10.970;2023-03-21T15:28:12;15.30;91.70
38568;DHT22;24338;48.280;10.970;2023-03-21T15:30:49;15.30;92.20
38568;DHT22;24338;48.280;10.970;2023-03-21T15:33:17;15.30;92.50
38568;DHT22;24338;48.280;10.970;2023-03-21T15:35:55;15.20;91.80
38568;DHT22;24338;48.280;10.970;2023-03-21T15:38:37;15.20;92.70
38568;DHT22;24338;48.280;10.970;2023-03-21T15:43:47;15.10;91.40
38568;DHT22;24338;48.280;10.970;2023-03-21T15:46:17;15.10;92.70
38568;DHT22;24338;48.280;10.970;2023-03-21T15:48:44;15.00;92.60
38568;DHT22;24338;48.280;10.970;2023-03-21T15:51:21;15.10;92.70
38568;DHT22;24338;48.280;10.970;2023-03-21T15:53:51;15.00;92.90
38568;DHT22;24338;48.280;10.970;2023-03-21T15:56:21;15.00;92.70
38568;DHT22;24338;48.280;10.970;2023-03-21T15:58:51;14.90;91.40
38568;DHT22;24338;48.280;10.970;2023-03-21T16:01:20;14.90;91.80
38568;DHT22;24338;48.280;10.970;2023-03-21T16:03:55;14.80;92.40
38568;DHT22;24338;48.280;10.970;2023-03-21T16:06:29;14.80;92.90
38568;DHT22;24338;48.280;10.970;2023-03-21T16:11:40;14.80;93.30
38568;DHT22;24338;48.280;10.970;2023-03-21T16:14:07;14.70;92.60
38568;DHT22;24338;48.280;10.970;2023-03-21T16:16:35;14.70;93.50
38568;DHT22;24338;48.280;10.970;2023-03-21T16:19:02;14.60;93.40
38568;DHT22;24338;48.280;10.970;2023-03-21T16:21:30;14.60;93.80
38568;DHT22;24338;48.280;10.970;2023-03-21T16:23:57;14.50;93.90
38568;DHT22;24338;48.280;10.970;2023-03-21T16:26:29;14.40;94.20
38568;DHT22;24338;48.280;10.970;2023-03-21T16:28:59;14.40;94.90
38568;DHT22;24338;48.280;10.970;2023-03-21T16:31:29;14.30;94.40
38568;DHT22;24338;48.280;10.970;2023-03-21T16:33:56;14.30;94.90
38568;DHT22;24338;48.280;10.970;2023-03-21T16:36:28;14.30;94.80
38568;DHT22;24338;48.280;10.970;2023-03-21T16:38:55;14.30;94.90
38568;DHT22;24338;48.280;10.970;2023-03-21T16:41:24;14.20;95.70
38568;DHT22;24338;48.280;10.970;2023-03-21T16:43:52;14.20;95.80
38568;DHT22;24338;48.280;10.970;2023-03-21T16:46:24;14.20;96.00
38568;DHT22;24338;48.280;10.970;2023-03-21T16:48:56;14.10;96.20
38568;DHT22;24338;48.280;10.970;2023-03-21T16:51:29;14.10;95.90
38568;DHT22;24338;48.280;10.970;2023-03-21T16:53:57;14.00;96.90
38568;DHT22;24338;48.280;10.970;2023-03-21T16:56:26;14.00;97.50
38568;DHT22;24338;48.280;10.970;2023-03-21T16:58:56;14.00;97.80
38568;DHT22;24338;48.280;10.970;2023-03-21T17:01:25;13.90;97.40
38568;DHT22;24338;48.280;10.970;2023-03-21T17:03:53;13.80;97.90
38568;DHT22;24338;48.280;10.970;2023-03-21T17:06:22;13.80;97.30
38568;DHT22;24338;48.280;10.970;2023-03-21T17:08:50;13.80;98.60
38568;DHT22;24338;48.280;10.970;2023-03-21T17:11:20;13.70;98.80
38568;DHT22;24338;48.280;10.970;2023-03-21T17:13:51;13.60;99.80